Time;durP1;ratioP1;P1;durP2;ratioP2;P2;SDS_P1;SDS_P2;PMS_P1;PMS_P2;Temp;Humidity;BMP_temperature;BMP_pressure;BME280_temperature;BME280_humidity;BME280_pressure;Samples;Min_cycle;Max_cycle;Signal;HPM_P1;HPM_P2
2022/12/09 00:02:06;;;;;;;;;;;-3.10;99.90;;;;;;5057004;28;19940;-67
2022/12/09 00:04:32;;;;;;;;;;;-3.10;99.90;;;;;;5057212;28;19928;-67
2022/12/09 00:06:58;;;;;;;;;;;-3.20;99.90;;;;;;5057223;28;19924;-67
2022/12/09 00:09:23;;;;;;;;;;;-3.20;99.90;;;;;;5057451;28;19913;-67
2022/12/09 00:11:51;;;;;;;;;;;-3.30;99.90;;;;;;5056899;28;19948;-66
2022/12/09 00:14:17;;;;;;;;;;;-3.30;99.90;;;;;;5057235;28;19948;-67
2022/12/09 00:16:42;;;;;;;;;;;-3.30;99.90;;;;;;5056820;28;20392;-67
2022/12/09 00:19:08;;;;;;;;;;;-3.20;99.90;;;;;;5038782;28;19929;-67
2022/12/09 00:21:34;;;;;;;;;;;-3.20;99.90;;;;;;5056889;28;19963;-67
2022/12/09 00:24:01;;;;;;;;;;;-3.20;99.90;;;;;;5056626;28;20328;-67
2022/12/09 00:26:27;;;;;;;;;;;-3.20;99.90;;;;;;5056628;28;19917;-67
2022/12/09 00:28:53;;;;;;;;;;;-3.20;99.90;;;;;;5056817;28;20352;-67
2022/12/09 00:31:20;;;;;;;;;;;-3.20;99.90;;;;;;5057064;28;20363;-67
2022/12/09 00:33:46;;;;;;;;;;;-3.30;99.90;;;;;;5056451;28;19974;-67
2022/12/09 00:36:16;;;;;;;;;;;-3.30;99.90;;;;;;5038499;28;20356;-67
2022/12/09 00:38:41;;;;;;;;;;;-3.30;99.90;;;;;;5056381;28;19909;-67
2022/12/09 00:41:07;;;;;;;;;;;-3.40;99.90;;;;;;5056191;28;19924;-67
2022/12/09 00:43:33;;;;;;;;;;;-3.30;99.90;;;;;;5056537;28;19909;-66
2022/12/09 00:45:59;;;;;;;;;;;-3.40;99.90;;;;;;5056168;28;19994;-67
2022/12/09 00:48:25;;;;;;;;;;;-3.40;99.90;;;;;;5055769;28;19920;-67
2022/12/09 00:50:50;;;;;;;;;;;-3.40;99.90;;;;;;5056154;28;19917;-67
2022/12/09 00:53:19;;;;;;;;;;;-3.40;99.90;;;;;;5056618;28;20463;-67
2022/12/09 00:55:45;;;;;;;;;;;-3.30;99.90;;;;;;5056544;28;20345;-67
2022/12/09 00:58:10;;;;;;;;;;;-3.30;99.90;;;;;;5055976;28;19958;-67
2022/12/09 01:00:36;;;;;;;;;;;-3.30;99.90;;;;;;5055908;28;19975;-67
2022/12/09 01:03:02;;;;;;;;;;;-3.20;99.90;;;;;;5055885;28;20438;-67
2022/12/09 01:05:27;;;;;;;;;;;-3.20;99.90;;;;;;5055737;28;20379;-67
2022/12/09 01:07:53;;;;;;;;;;;-3.20;99.90;;;;;;5055787;28;20000;-67
2022/12/09 01:10:18;;;;;;;;;;;-3.20;99.90;;;;;;5056018;28;19913;-67
2022/12/09 01:12:44;;;;;;;;;;;-3.20;99.90;;;;;;5055724;28;19963;-67
2022/12/09 01:15:10;;;;;;;;;;;-3.30;99.90;;;;;;5055657;28;20436;-67
2022/12/09 01:17:38;;;;;;;;;;;-3.30;99.90;;;;;;5055641;28;19913;-67
2022/12/09 01:20:05;;;;;;;;;;;-3.30;99.90;;;;;;5055476;28;19947;-67
2022/12/09 01:22:30;;;;;;;;;;;-3.40;99.90;;;;;;5055504;28;19916;-67
2022/12/09 01:24:56;;;;;;;;;;;-3.40;99.90;;;;;;5055415;28;19938;-67
2022/12/09 01:27:22;;;;;;;;;;;-3.40;99.90;;;;;;5037905;28;19963;-66
2022/12/09 01:29:47;;;;;;;;;;;-3.40;99.90;;;;;;5055396;28;19940;-67
2022/12/09 01:32:13;;;;;;;;;;;-3.30;99.90;;;;;;5055382;28;20368;-67
2022/12/09 01:34:38;;;;;;;;;;;-3.30;99.90;;;;;;5055427;28;19962;-67
2022/12/09 01:37:04;;;;;;;;;;;-3.30;99.90;;;;;;5055276;28;19916;-66
2022/12/09 01:39:30;;;;;;;;;;;-3.30;99.90;;;;;;5055478;28;19917;-67
2022/12/09 01:41:55;;;;;;;;;;;-3.40;99.90;;;;;;5055399;28;20377;-67
2022/12/09 01:44:22;;;;;;;;;;;-3.40;99.90;;;;;;5056243;28;19916;-67
2022/12/09 01:46:49;;;;;;;;;;;-3.40;99.90;;;;;;5037171;28;20357;-66
2022/12/09 01:49:18;;;;;;;;;;;-3.40;99.90;;;;;;5055024;28;19909;-67
2022/12/09 01:51:46;;;;;;;;;;;-3.30;99.90;;;;;;5054992;28;19909;-67
2022/12/09 01:54:12;;;;;;;;;;;-3.30;99.90;;;;;;5054895;28;19909;-67
2022/12/09 01:56:38;;;;;;;;;;;-3.20;99.90;;;;;;5055458;28;19974;-67
2022/12/09 01:59:06;;;;;;;;;;;-3.20;99.90;;;;;;5054844;28;19913;-67
2022/12/09 02:01:32;;;;;;;;;;;-3.10;99.90;;;;;;5053907;28;19913;-67
2022/12/09 02:03:58;;;;;;;;;;;-3.10;99.90;;;;;;5054696;28;19935;-67
2022/12/09 02:06:23;;;;;;;;;;;-3.10;99.90;;;;;;5054678;28;19913;-67
2022/12/09 02:08:49;;;;;;;;;;;-3.00;99.90;;;;;;5054978;28;19912;-67
2022/12/09 02:11:18;;;;;;;;;;;-3.00;99.90;;;;;;5054897;28;19999;-67
2022/12/09 02:13:47;;;;;;;;;;;-3.00;99.90;;;;;;5054574;28;19924;-66
2022/12/09 02:16:15;;;;;;;;;;;-3.00;99.90;;;;;;5054517;28;19909;-67
2022/12/09 02:18:41;;;;;;;;;;;-3.00;99.90;;;;;;5054292;28;19960;-67
2022/12/09 02:21:08;;;;;;;;;;;-2.90;99.90;;;;;;5054371;28;19963;-67
2022/12/09 02:23:40;;;;;;;;;;;-2.90;99.90;;;;;;5054426;28;20317;-67
2022/12/09 02:26:05;;;;;;;;;;;-3.00;99.90;;;;;;5054553;28;20348;-67
2022/12/09 02:28:55;;;;;;;;;;;-3.00;99.90;;;;;;5054323;28;19909;-67
2022/12/09 02:31:30;;;;;;;;;;;-3.00;99.90;;;;;;5054589;28;19909;-67
2022/12/09 02:34:06;;;;;;;;;;;-3.10;99.90;;;;;;5109338;22;19924;-68
2022/12/09 02:36:52;;;;;;;;;;;-3.00;99.90;;;;;;5094407;28;20010;-68
2022/12/09 02:39:19;;;;;;;;;;;-3.00;99.90;;;;;;5093687;28;19908;-68
2022/12/09 02:41:46;;;;;;;;;;;-3.00;99.90;;;;;;5094259;28;19916;-68
2022/12/09 02:44:14;;;;;;;;;;;-3.00;99.90;;;;;;5094238;28;20012;-68
2022/12/09 02:46:41;;;;;;;;;;;-2.90;99.90;;;;;;5094228;28;19908;-68
2022/12/09 02:49:06;;;;;;;;;;;-2.90;99.90;;;;;;5093956;28;19969;-68
2022/12/09 02:51:34;;;;;;;;;;;-2.90;99.90;;;;;;5094451;28;20359;-68
2022/12/09 02:54:03;;;;;;;;;;;-2.90;99.90;;;;;;5094116;28;20303;-68
2022/12/09 02:56:29;;;;;;;;;;;-2.80;99.90;;;;;;5094079;28;20053;-68
2022/12/09 02:58:54;;;;;;;;;;;-2.80;99.90;;;;;;5094361;28;19969;-68
2022/12/09 03:01:28;;;;;;;;;;;-2.80;99.90;;;;;;5093981;28;19912;-68
2022/12/09 03:03:54;;;;;;;;;;;-2.80;99.90;;;;;;5093713;28;19908;-67
2022/12/09 03:06:23;;;;;;;;;;;-2.80;99.90;;;;;;5094003;28;19913;-68
2022/12/09 03:08:55;;;;;;;;;;;-2.80;99.90;;;;;;5093911;28;19908;-68
2022/12/09 03:11:22;;;;;;;;;;;-2.90;99.90;;;;;;5093798;28;19995;-68
2022/12/09 03:14:06;;;;;;;;;;;-2.90;99.90;;;;;;5093821;28;20004;-68
2022/12/09 03:16:33;;;;;;;;;;;-2.90;99.90;;;;;;5094185;28;19912;-68
2022/12/09 03:19:02;;;;;;;;;;;-3.00;99.90;;;;;;5075503;28;19909;-68
2022/12/09 03:21:30;;;;;;;;;;;-3.00;99.90;;;;;;5093867;28;20329;-68
2022/12/09 03:23:55;;;;;;;;;;;-2.90;99.90;;;;;;5093731;28;19962;-68
2022/12/09 03:26:23;;;;;;;;;;;-2.90;99.90;;;;;;5075722;28;20275;-68
2022/12/09 03:28:49;;;;;;;;;;;-2.90;99.90;;;;;;5093793;28;19908;-68
2022/12/09 03:31:17;;;;;;;;;;;-2.80;99.90;;;;;;5094027;28;19961;-68
2022/12/09 03:33:45;;;;;;;;;;;-2.80;99.90;;;;;;5093201;28;19939;-68
2022/12/09 03:36:12;;;;;;;;;;;-2.80;99.90;;;;;;5093972;28;19909;-68
2022/12/09 03:38:41;;;;;;;;;;;-2.70;99.90;;;;;;5093676;28;20394;-68
2022/12/09 03:41:15;;;;;;;;;;;-2.70;99.90;;;;;;5093850;28;19917;-68
2022/12/09 03:43:43;;;;;;;;;;;-2.70;99.90;;;;;;5093599;28;19916;-68
2022/12/09 03:46:08;;;;;;;;;;;-2.70;99.90;;;;;;5080280;28;19908;-67
2022/12/09 03:48:34;;;;;;;;;;;-2.70;99.90;;;;;;5073102;28;20291;-67
2022/12/09 03:51:04;;;;;;;;;;;-2.70;99.90;;;;;;5073327;28;20292;-65
2022/12/09 03:53:35;;;;;;;;;;;-2.60;99.90;;;;;;5073823;28;20007;-65
2022/12/09 03:56:24;;;;;;;;;;;-2.70;99.90;;;;;;5073328;28;19909;-65
2022/12/09 03:58:53;;;;;;;;;;;-2.70;99.90;;;;;;5065100;28;19915;-65
2022/12/09 04:01:21;;;;;;;;;;;-2.60;99.90;;;;;;5073158;28;19912;-65
2022/12/09 04:03:47;;;;;;;;;;;-2.60;99.90;;;;;;5087340;28;19914;-66
2022/12/09 04:06:13;;;;;;;;;;;-2.60;99.90;;;;;;5093427;28;19944;-65
2022/12/09 04:08:39;;;;;;;;;;;-2.50;99.90;;;;;;5093394;28;20380;-65
2022/12/09 04:11:04;;;;;;;;;;;-2.60;99.90;;;;;;5093393;28;20325;-65
2022/12/09 04:13:30;;;;;;;;;;;-2.60;99.90;;;;;;5093266;28;19916;-65
2022/12/09 04:15:56;;;;;;;;;;;-2.50;99.90;;;;;;5093298;28;19912;-65
2022/12/09 04:18:21;;;;;;;;;;;-2.50;99.90;;;;;;5093056;28;19965;-65
2022/12/09 04:20:47;;;;;;;;;;;-2.50;99.90;;;;;;5093511;28;19912;-65
2022/12/09 04:23:12;;;;;;;;;;;-2.50;99.90;;;;;;5093358;28;19908;-65
2022/12/09 04:25:38;;;;;;;;;;;-2.50;99.90;;;;;;5097223;28;19916;-65
2022/12/09 04:28:03;;;;;;;;;;;-2.60;99.90;;;;;;5096849;28;19947;-65
2022/12/09 04:30:29;;;;;;;;;;;-2.60;99.90;;;;;;5097070;28;19919;-65
2022/12/09 04:32:54;;;;;;;;;;;-2.60;99.90;;;;;;5096198;28;19920;-66
2022/12/09 04:35:20;;;;;;;;;;;-2.50;99.90;;;;;;5097284;28;19958;-65
2022/12/09 04:37:45;;;;;;;;;;;-2.50;99.90;;;;;;5096927;28;20007;-66
2022/12/09 04:40:11;;;;;;;;;;;-2.60;99.90;;;;;;5096816;28;20298;-66
2022/12/09 04:42:37;;;;;;;;;;;-2.60;99.90;;;;;;5096529;28;20299;-68
2022/12/09 04:45:03;;;;;;;;;;;-2.60;99.90;;;;;;5096560;28;20370;-68
2022/12/09 04:47:29;;;;;;;;;;;-2.60;99.90;;;;;;5096590;28;20309;-66
2022/12/09 04:49:54;;;;;;;;;;;-2.70;99.90;;;;;;5096749;28;19958;-65
2022/12/09 04:52:20;;;;;;;;;;;-2.70;99.90;;;;;;5096597;28;19934;-66
2022/12/09 04:54:47;;;;;;;;;;;-2.70;99.90;;;;;;5096287;28;19915;-66
2022/12/09 04:57:13;;;;;;;;;;;-2.70;99.90;;;;;;5096550;28;19915;-65
2022/12/09 04:59:38;;;;;;;;;;;-2.70;99.90;;;;;;5096813;28;19912;-66
2022/12/09 05:02:04;;;;;;;;;;;-2.70;99.90;;;;;;5096020;28;19916;-66
2022/12/09 05:04:30;;;;;;;;;;;-2.70;99.90;;;;;;5096027;28;20002;-66
2022/12/09 05:06:55;;;;;;;;;;;-2.70;99.90;;;;;;5096407;28;19927;-65
2022/12/09 05:09:21;;;;;;;;;;;-2.60;99.90;;;;;;5096040;28;20398;-65
2022/12/09 05:11:46;;;;;;;;;;;-2.60;99.90;;;;;;5096591;28;19912;-65
2022/12/09 05:14:12;;;;;;;;;;;-2.60;99.90;;;;;;5095934;28;20010;-68
2022/12/09 05:16:38;;;;;;;;;;;-2.60;99.90;;;;;;5096196;28;19912;-68
2022/12/09 05:19:03;;;;;;;;;;;-2.60;99.90;;;;;;5095578;28;19912;-68
2022/12/09 05:21:29;;;;;;;;;;;-2.50;99.90;;;;;;5096029;28;19942;-68
2022/12/09 05:23:54;;;;;;;;;;;-2.50;99.90;;;;;;5095985;28;19912;-68
2022/12/09 05:26:20;;;;;;;;;;;-2.40;99.90;;;;;;5077617;28;19912;-68
2022/12/09 05:28:46;;;;;;;;;;;-2.40;99.90;;;;;;5095609;28;19915;-68
2022/12/09 05:31:16;;;;;;;;;;;-2.50;99.90;;;;;;5095554;28;19912;-68
2022/12/09 05:33:42;;;;;;;;;;;-2.50;99.90;;;;;;5095157;28;19951;-68
2022/12/09 05:36:12;;;;;;;;;;;-2.40;99.90;;;;;;5094717;28;19908;-68
2022/12/09 05:38:37;;;;;;;;;;;-2.40;99.90;;;;;;5095503;28;20044;-68
2022/12/09 05:41:03;;;;;;;;;;;-2.50;99.90;;;;;;5095619;28;19912;-68
2022/12/09 05:43:29;;;;;;;;;;;-2.40;99.90;;;;;;5095313;28;20283;-68
2022/12/09 05:45:55;;;;;;;;;;;-2.40;99.90;;;;;;5095273;28;19918;-68
2022/12/09 05:48:20;;;;;;;;;;;-2.40;99.90;;;;;;5076684;28;20015;-68
2022/12/09 05:50:55;;;;;;;;;;;-2.30;99.90;;;;;;5095215;28;19916;-68
2022/12/09 05:53:21;;;;;;;;;;;-2.20;99.90;;;;;;5095453;28;19915;-68
2022/12/09 05:55:49;;;;;;;;;;;-2.20;99.90;;;;;;5060374;28;19916;-69
2022/12/09 05:58:15;;;;;;;;;;;-2.20;99.90;;;;;;5094693;28;19923;-69
2022/12/09 06:00:40;;;;;;;;;;;-2.20;99.90;;;;;;5076734;28;20283;-68
2022/12/09 06:03:06;;;;;;;;;;;-2.10;99.90;;;;;;5076760;28;19912;-66
2022/12/09 06:05:32;;;;;;;;;;;-2.10;99.90;;;;;;5076865;28;19916;-65
2022/12/09 06:07:57;;;;;;;;;;;-2.10;99.90;;;;;;5094898;28;20328;-65
2022/12/09 06:10:23;;;;;;;;;;;-2.10;99.90;;;;;;5094870;28;20385;-65
2022/12/09 06:12:52;;;;;;;;;;;-2.10;99.90;;;;;;5076608;28;19908;-66
2022/12/09 06:15:17;;;;;;;;;;;-2.10;99.90;;;;;;5095075;28;20369;-65
2022/12/09 06:17:43;;;;;;;;;;;-2.10;99.90;;;;;;5094553;28;19915;-67
2022/12/09 06:20:08;;;;;;;;;;;-2.10;99.90;;;;;;5094609;28;19923;-65
2022/12/09 06:22:34;;;;;;;;;;;-2.10;99.90;;;;;;5094584;28;19912;-65
2022/12/09 06:24:59;;;;;;;;;;;-2.10;99.90;;;;;;5076869;28;19919;-65
2022/12/09 06:27:25;;;;;;;;;;;-2.10;99.90;;;;;;5094637;28;20329;-66
2022/12/09 06:29:50;;;;;;;;;;;-2.10;99.90;;;;;;5076458;28;20334;-66
2022/12/09 06:32:16;;;;;;;;;;;-2.10;99.90;;;;;;5094206;28;19927;-66
2022/12/09 06:34:42;;;;;;;;;;;-2.10;99.90;;;;;;5094280;28;19916;-66
2022/12/09 06:37:07;;;;;;;;;;;-2.10;99.90;;;;;;5076303;28;19926;-66
2022/12/09 06:39:33;;;;;;;;;;;-2.10;99.90;;;;;;5094379;28;19908;-66
2022/12/09 06:41:58;;;;;;;;;;;-2.10;99.90;;;;;;5094174;28;20014;-66
2022/12/09 06:44:24;;;;;;;;;;;-2.10;99.90;;;;;;5094307;28;20008;-66
2022/12/09 06:46:50;;;;;;;;;;;-2.10;99.90;;;;;;5094451;28;19912;-66
2022/12/09 06:49:15;;;;;;;;;;;-2.10;99.90;;;;;;5094011;28;19912;-66
2022/12/09 06:51:41;;;;;;;;;;;-2.10;99.90;;;;;;5094770;28;19951;-67
2022/12/09 06:54:08;;;;;;;;;;;-2.00;99.90;;;;;;5094111;28;19912;-66
2022/12/09 06:56:34;;;;;;;;;;;-2.00;99.90;;;;;;5094419;28;19955;-66
2022/12/09 06:58:59;;;;;;;;;;;-2.00;99.90;;;;;;5093942;28;20437;-66
2022/12/09 07:01:25;;;;;;;;;;;-2.00;99.90;;;;;;5094150;28;19912;-65
2022/12/09 07:03:52;;;;;;;;;;;-2.00;99.90;;;;;;5093468;28;19912;-65
2022/12/09 07:06:29;;;;;;;;;;;-2.00;99.90;;;;;;5093912;28;19915;-65
2022/12/09 07:08:56;;;;;;;;;;;-1.90;99.90;;;;;;5075783;28;19908;-65
2022/12/09 07:11:22;;;;;;;;;;;-1.90;99.90;;;;;;5093849;28;19908;-65
2022/12/09 07:13:47;;;;;;;;;;;-1.90;99.90;;;;;;5093858;28;20393;-65
2022/12/09 07:16:13;;;;;;;;;;;-1.90;99.90;;;;;;5093933;28;19912;-65
2022/12/09 07:18:38;;;;;;;;;;;-1.90;99.90;;;;;;5075467;28;19913;-65
2022/12/09 07:21:08;;;;;;;;;;;-1.90;99.90;;;;;;5094288;28;19969;-65
2022/12/09 07:23:34;;;;;;;;;;;-1.90;99.90;;;;;;5094078;28;20279;-65
2022/12/09 07:26:01;;;;;;;;;;;-1.90;99.90;;;;;;5094072;28;19912;-65
2022/12/09 07:28:26;;;;;;;;;;;-1.90;99.90;;;;;;5075688;28;19908;-65
2022/12/09 07:30:52;;;;;;;;;;;-1.90;99.90;;;;;;5093711;28;19919;-65
2022/12/09 07:33:18;;;;;;;;;;;-1.90;99.90;;;;;;5093169;28;19919;-65
2022/12/09 07:35:43;;;;;;;;;;;-1.80;99.90;;;;;;5093689;28;19943;-65
2022/12/09 07:38:09;;;;;;;;;;;-1.80;99.90;;;;;;5093680;28;19982;-65
2022/12/09 07:40:34;;;;;;;;;;;-1.80;99.90;;;;;;5075499;28;19930;-65
2022/12/09 07:43:00;;;;;;;;;;;-1.80;99.90;;;;;;5093573;28;19999;-65
2022/12/09 07:45:25;;;;;;;;;;;-1.80;99.90;;;;;;5093626;28;19934;-65
2022/12/09 07:47:51;;;;;;;;;;;-1.80;99.90;;;;;;5093879;28;19912;-66
2022/12/09 07:50:16;;;;;;;;;;;-1.80;99.90;;;;;;5093316;28;19942;-66
2022/12/09 07:52:42;;;;;;;;;;;-1.80;99.90;;;;;;5093728;28;19938;-65
2022/12/09 07:55:08;;;;;;;;;;;-1.70;99.90;;;;;;5093498;28;19912;-65
2022/12/09 07:57:34;;;;;;;;;;;-1.70;99.90;;;;;;5093458;28;20291;-65
2022/12/09 07:59:59;;;;;;;;;;;-1.70;99.90;;;;;;5096785;28;19927;-65
2022/12/09 08:02:25;;;;;;;;;;;-1.70;99.90;;;;;;5079176;28;19912;-66
2022/12/09 08:04:50;;;;;;;;;;;-1.70;99.90;;;;;;5096999;28;19912;-66
2022/12/09 08:07:16;;;;;;;;;;;-1.70;99.90;;;;;;5097574;28;19950;-65
2022/12/09 08:09:41;;;;;;;;;;;-1.70;99.90;;;;;;5097245;28;20302;-65
2022/12/09 08:12:09;;;;;;;;;;;-1.60;99.90;;;;;;5097124;28;20290;-66
2022/12/09 08:14:34;;;;;;;;;;;-1.60;99.90;;;;;;5078910;28;19908;-68
2022/12/09 08:17:00;;;;;;;;;;;-1.60;99.90;;;;;;5097394;28;20008;-68
2022/12/09 08:19:26;;;;;;;;;;;-1.60;99.90;;;;;;5096784;28;19950;-68
2022/12/09 08:21:51;;;;;;;;;;;-1.60;99.90;;;;;;5096887;28;19920;-68
2022/12/09 08:24:17;;;;;;;;;;;-1.60;99.90;;;;;;5096914;28;19962;-68
2022/12/09 08:26:42;;;;;;;;;;;-1.60;99.90;;;;;;5096906;28;19912;-68
2022/12/09 08:29:12;;;;;;;;;;;-1.50;99.90;;;;;;5097401;28;19912;-68
2022/12/09 08:31:39;;;;;;;;;;;-1.50;99.90;;;;;;5096839;28;19916;-68
2022/12/09 08:34:04;;;;;;;;;;;-1.50;99.90;;;;;;5078590;28;19965;-70
2022/12/09 08:36:30;;;;;;;;;;;-1.40;99.90;;;;;;5096696;28;19916;-70
2022/12/09 08:39:00;;;;;;;;;;;-1.40;99.90;;;;;;5078518;28;19913;-71
2022/12/09 08:41:34;;;;;;;;;;;-1.40;99.90;;;;;;5096489;28;19969;-70
2022/12/09 08:44:04;;;;;;;;;;;-1.30;99.90;;;;;;5078323;28;19908;-70
2022/12/09 08:46:30;;;;;;;;;;;-1.30;99.90;;;;;;5096796;28;19909;-70
2022/12/09 08:48:55;;;;;;;;;;;-1.20;99.90;;;;;;5096531;28;19935;-70
2022/12/09 08:51:21;;;;;;;;;;;-1.20;99.90;;;;;;5096382;28;20293;-70
2022/12/09 08:53:46;;;;;;;;;;;-1.20;99.90;;;;;;5096597;28;20372;-70
2022/12/09 08:56:13;;;;;;;;;;;-1.20;99.90;;;;;;5095883;28;20286;-69
2022/12/09 08:58:39;;;;;;;;;;;-1.10;99.90;;;;;;5095693;28;19908;-67
2022/12/09 09:01:05;;;;;;;;;;;-1.10;99.90;;;;;;5096186;28;19912;-67
2022/12/09 09:03:31;;;;;;;;;;;-1.00;99.90;;;;;;5096322;28;19958;-68
2022/12/09 09:06:01;;;;;;;;;;;-1.00;99.90;;;;;;5096628;28;19962;-67
2022/12/09 09:08:26;;;;;;;;;;;-1.00;99.90;;;;;;5096166;28;19912;-67
2022/12/09 09:10:52;;;;;;;;;;;-1.00;99.90;;;;;;5095826;28;19985;-68
2022/12/09 09:13:17;;;;;;;;;;;-1.00;99.90;;;;;;5096102;28;19919;-67
2022/12/09 09:15:43;;;;;;;;;;;-0.90;99.90;;;;;;5096051;28;19965;-68
2022/12/09 09:18:08;;;;;;;;;;;-0.90;99.90;;;;;;5096176;28;19912;-67
2022/12/09 09:20:34;;;;;;;;;;;-0.90;99.90;;;;;;5095970;28;20020;-68
2022/12/09 09:22:59;;;;;;;;;;;-0.90;99.90;;;;;;5095981;28;19919;-68
2022/12/09 09:25:25;;;;;;;;;;;-0.80;99.90;;;;;;5095964;28;19916;-68
2022/12/09 09:27:50;;;;;;;;;;;-0.80;99.90;;;;;;5095864;28;19908;-68
2022/12/09 09:30:16;;;;;;;;;;;-0.80;99.90;;;;;;5096010;28;19919;-68
2022/12/09 09:32:41;;;;;;;;;;;-0.70;99.90;;;;;;5095643;28;20011;-68
2022/12/09 09:35:07;;;;;;;;;;;-0.70;99.90;;;;;;5077899;28;20315;-68
2022/12/09 09:37:32;;;;;;;;;;;-0.70;99.90;;;;;;5095593;28;20280;-68
2022/12/09 09:39:58;;;;;;;;;;;-0.60;99.90;;;;;;5095561;28;19908;-68
2022/12/09 09:42:28;;;;;;;;;;;-0.60;99.90;;;;;;5095452;28;20337;-68
2022/12/09 09:44:54;;;;;;;;;;;-0.60;99.90;;;;;;5095406;28;19908;-67
2022/12/09 09:47:24;;;;;;;;;;;-0.60;99.90;;;;;;5077891;28;20371;-67
2022/12/09 09:50:08;;;;;;;;;;;-0.60;99.90;;;;;;5095348;28;20280;-67
2022/12/09 09:52:36;;;;;;;;;;;-0.60;99.90;;;;;;5095191;28;20353;-67
2022/12/09 09:55:11;;;;;;;;;;;-0.60;99.90;;;;;;5095259;28;19908;-67
2022/12/09 09:57:42;;;;;;;;;;;-0.50;99.90;;;;;;5095175;28;19950;-67
2022/12/09 10:00:13;;;;;;;;;;;-0.50;99.90;;;;;;5095077;28;19908;-67
2022/12/09 10:02:42;;;;;;;;;;;-0.50;99.90;;;;;;5095351;28;20321;-67
2022/12/09 10:05:07;;;;;;;;;;;-0.50;99.90;;;;;;5076949;28;19908;-68
2022/12/09 10:07:36;;;;;;;;;;;-0.50;99.90;;;;;;5076928;28;19908;-68
2022/12/09 10:10:20;;;;;;;;;;;-0.50;99.90;;;;;;5095004;28;20329;-67
2022/12/09 10:13:05;;;;;;;;;;;-0.50;99.90;;;;;;5094943;28;19908;-68
2022/12/09 10:15:39;;;;;;;;;;;-0.50;99.90;;;;;;5053287;28;19908;-68
2022/12/09 10:18:17;;;;;;;;;;;-0.50;99.90;;;;;;5094835;28;19961;-68
2022/12/09 10:20:43;;;;;;;;;;;-0.50;99.90;;;;;;5094521;28;19912;-68
2022/12/09 10:23:13;;;;;;;;;;;-0.50;99.90;;;;;;5094311;28;20390;-67
2022/12/09 10:25:44;;;;;;;;;;;-0.50;99.90;;;;;;5094676;28;20007;-67
2022/12/09 10:28:09;;;;;;;;;;;-0.40;99.90;;;;;;5094668;28;19908;-67
2022/12/09 10:30:36;;;;;;;;;;;-0.40;99.90;;;;;;5095135;28;19908;-68
2022/12/09 10:33:01;;;;;;;;;;;-0.30;99.90;;;;;;5094343;28;19981;-68
2022/12/09 10:35:28;;;;;;;;;;;-0.30;99.90;;;;;;5094492;28;19920;-68
2022/12/09 10:37:54;;;;;;;;;;;-0.30;99.90;;;;;;5094536;28;19909;-68
2022/12/09 10:40:41;;;;;;;;;;;-0.30;99.90;;;;;;5094380;28;19956;-68
2022/12/09 10:46:23;;;;;;;;;;;-0.30;99.90;;;;;;5032335;28;19916;-68
2022/12/09 10:48:48;;;;;;;;;;;-0.20;99.90;;;;;;5081978;28;19912;-68
2022/12/09 10:51:19;;;;;;;;;;;-0.20;99.90;;;;;;5094233;28;19999;-68
2022/12/09 10:53:52;;;;;;;;;;;-0.20;99.90;;;;;;5094173;28;19908;-68
2022/12/09 10:56:28;;;;;;;;;;;-0.20;99.90;;;;;;5094139;28;19908;-69
2022/12/09 10:59:12;;;;;;;;;;;-0.20;99.90;;;;;;5094425;28;20014;-69
2022/12/09 11:01:48;;;;;;;;;;;-0.20;99.90;;;;;;5094021;28;19912;-69
2022/12/09 11:04:20;;;;;;;;;;;0.00;99.90;;;;;;5093991;28;20291;-69
2022/12/09 11:06:45;;;;;;;;;;;0.10;99.90;;;;;;5094325;28;19908;-69
2022/12/09 11:09:19;;;;;;;;;;;0.20;99.90;;;;;;5093861;28;19915;-69
2022/12/09 11:11:46;;;;;;;;;;;0.30;99.90;;;;;;5073764;28;19909;-69
2022/12/09 11:14:22;;;;;;;;;;;0.40;99.90;;;;;;5073675;28;20024;-69
2022/12/09 11:16:50;;;;;;;;;;;0.50;99.90;;;;;;5073991;28;19912;-70
2022/12/09 11:19:15;;;;;;;;;;;0.70;99.90;;;;;;5074333;28;19913;-69
2022/12/09 11:21:41;;;;;;;;;;;0.70;99.90;;;;;;5055769;28;19922;-69
2022/12/09 11:24:18;;;;;;;;;;;0.80;99.90;;;;;;5055718;28;19999;-69
2022/12/09 11:26:43;;;;;;;;;;;0.90;99.90;;;;;;5073783;28;19953;-70
2022/12/09 11:29:14;;;;;;;;;;;0.90;99.90;;;;;;5073848;28;19948;-69
2022/12/09 11:31:40;;;;;;;;;;;0.90;99.90;;;;;;5073875;28;19913;-70
2022/12/09 11:34:21;;;;;;;;;;;0.80;99.90;;;;;;5058912;28;19920;-70
2022/12/09 11:36:51;;;;;;;;;;;0.90;99.90;;;;;;5077604;28;19909;-69
2022/12/09 11:39:31;;;;;;;;;;;0.90;99.90;;;;;;5077891;28;19909;-70
2022/12/09 11:42:18;;;;;;;;;;;0.90;99.90;;;;;;5077356;28;20330;-69
2022/12/09 11:45:03;;;;;;;;;;;0.90;99.90;;;;;;5077510;28;19905;-70
2022/12/09 11:47:31;;;;;;;;;;;1.00;99.90;;;;;;5076865;28;19915;-70
2022/12/09 11:50:17;;;;;;;;;;;1.00;99.90;;;;;;5077647;28;19908;-70
2022/12/09 11:52:43;;;;;;;;;;;1.00;99.90;;;;;;5076735;28;19916;-69
2022/12/09 11:55:08;;;;;;;;;;;1.00;99.90;;;;;;5077325;28;19908;-70
2022/12/09 11:57:37;;;;;;;;;;;1.00;99.90;;;;;;5059317;28;19909;-70
2022/12/09 12:00:15;;;;;;;;;;;1.00;99.90;;;;;;5059212;28;19965;-70
2022/12/09 12:02:53;;;;;;;;;;;1.00;99.90;;;;;;5077119;28;19909;-70
2022/12/09 12:05:42;;;;;;;;;;;1.10;99.90;;;;;;5077405;28;19995;-71
2022/12/09 12:08:19;;;;;;;;;;;1.10;99.90;;;;;;5068721;28;19919;-71
2022/12/09 12:11:04;;;;;;;;;;;1.10;99.90;;;;;;5059003;28;20003;-71
2022/12/09 12:13:49;;;;;;;;;;;1.10;99.90;;;;;;5077021;28;19909;-71
2022/12/09 12:16:25;;;;;;;;;;;1.10;99.90;;;;;;5058980;28;19909;-71
2022/12/09 12:18:50;;;;;;;;;;;1.10;99.90;;;;;;5077311;28;19909;-71
2022/12/09 12:21:20;;;;;;;;;;;1.10;99.90;;;;;;5076705;28;20016;-71
2022/12/09 12:23:59;;;;;;;;;;;1.10;99.90;;;;;;5077574;28;19909;-71
2022/12/09 12:26:27;;;;;;;;;;;1.10;99.90;;;;;;5076655;28;19987;-71
2022/12/09 12:29:16;;;;;;;;;;;1.10;99.90;;;;;;5076878;28;20340;-72
2022/12/09 12:31:53;;;;;;;;;;;1.10;99.90;;;;;;5076905;28;20360;-71
2022/12/09 12:34:42;;;;;;;;;;;1.10;99.90;;;;;;5058859;28;20343;-71
2022/12/09 12:37:27;;;;;;;;;;;1.10;99.90;;;;;;5085488;28;20287;-71
2022/12/09 12:39:55;;;;;;;;;;;1.10;99.90;;;;;;5096676;28;19931;-71
2022/12/09 12:46:15;;;;;;;;;;;1.10;99.90;;;;;;5096512;28;20003;-71
2022/12/09 12:48:23;;;;;;;;;;;1.10;99.90;;;;;;5096457;28;19915;-71
2022/12/09 12:51:04;;;;;;;;;;;1.10;99.90;;;;;;5096779;28;19908;-72
2022/12/09 12:53:38;;;;;;;;;;;1.10;99.90;;;;;;5096478;28;19908;-71
2022/12/09 12:56:07;;;;;;;;;;;1.10;99.90;;;;;;5096331;28;19908;-71
2022/12/09 12:58:33;;;;;;;;;;;1.10;99.90;;;;;;5096599;28;19918;-71
2022/12/09 13:01:17;;;;;;;;;;;1.20;99.90;;;;;;5078153;28;19912;-71
2022/12/09 13:03:55;;;;;;;;;;;1.20;99.90;;;;;;5096222;28;19912;-71
2022/12/09 13:06:27;;;;;;;;;;;1.20;99.90;;;;;;5078139;28;19908;-71
2022/12/09 13:08:55;;;;;;;;;;;1.20;99.90;;;;;;5096568;28;20371;-71
2022/12/09 13:11:24;;;;;;;;;;;1.20;99.90;;;;;;5096048;28;19956;-71
2022/12/09 13:13:53;;;;;;;;;;;1.30;99.90;;;;;;5095941;28;19915;-71
2022/12/09 13:16:27;;;;;;;;;;;1.30;99.90;;;;;;5096017;28;19908;-71
2022/12/09 13:18:53;;;;;;;;;;;1.40;99.90;;;;;;5095941;28;19918;-71
2022/12/09 13:21:20;;;;;;;;;;;1.50;99.90;;;;;;5096164;28;19912;-71
2022/12/09 13:23:46;;;;;;;;;;;1.60;99.90;;;;;;5095780;28;19908;-70
2022/12/09 13:26:14;;;;;;;;;;;1.60;99.90;;;;;;5096062;28;19962;-70
2022/12/09 13:28:50;;;;;;;;;;;1.60;99.90;;;;;;5096019;28;19947;-70
2022/12/09 13:31:16;;;;;;;;;;;1.60;99.90;;;;;;5095632;28;19962;-70
2022/12/09 13:33:54;;;;;;;;;;;1.60;99.90;;;;;;5077473;28;19960;-71
2022/12/09 13:36:24;;;;;;;;;;;1.60;99.90;;;;;;5095857;28;20364;-70
2022/12/09 13:38:50;;;;;;;;;;;1.60;99.90;;;;;;5095852;28;20003;-70
2022/12/09 13:41:24;;;;;;;;;;;1.60;99.90;;;;;;5095734;28;20047;-70
2022/12/09 13:43:53;;;;;;;;;;;1.50;99.90;;;;;;5077258;28;19908;-70
2022/12/09 13:46:20;;;;;;;;;;;1.50;99.90;;;;;;5095482;28;19947;-70
2022/12/09 13:48:46;;;;;;;;;;;1.40;99.90;;;;;;5095686;28;20271;-70
2022/12/09 13:51:12;;;;;;;;;;;1.40;99.90;;;;;;5095282;28;19915;-71
2022/12/09 13:53:40;;;;;;;;;;;1.40;99.90;;;;;;5095213;28;19912;-70
2022/12/09 13:56:15;;;;;;;;;;;1.40;99.90;;;;;;5094209;28;19908;-70
2022/12/09 13:58:59;;;;;;;;;;;1.40;99.90;;;;;;5095154;28;19908;-70
2022/12/09 14:01:30;;;;;;;;;;;1.40;99.90;;;;;;5095357;28;19912;-70
2022/12/09 14:04:07;;;;;;;;;;;1.40;99.90;;;;;;5095004;28;19908;-70
2022/12/09 14:06:45;;;;;;;;;;;1.40;99.90;;;;;;5095029;28;20363;-70
2022/12/09 14:09:29;;;;;;;;;;;1.40;99.90;;;;;;5094906;28;19908;-71
2022/12/09 14:11:56;;;;;;;;;;;1.40;99.90;;;;;;5094855;28;19915;-70
2022/12/09 14:14:21;;;;;;;;;;;1.50;99.90;;;;;;5095066;28;20007;-70
2022/12/09 14:16:55;;;;;;;;;;;1.40;99.90;;;;;;5112680;27;20346;-70
2022/12/09 14:19:24;;;;;;;;;;;1.40;99.90;;;;;;5111631;28;20429;-70
2022/12/09 14:22:11;;;;;;;;;;;1.30;99.90;;;;;;5111613;28;19912;-70
2022/12/09 14:24:37;;;;;;;;;;;1.40;99.90;;;;;;5110397;28;19908;-70
2022/12/09 14:27:03;;;;;;;;;;;1.30;99.90;;;;;;5111934;28;19993;-70
2022/12/09 14:29:46;;;;;;;;;;;1.30;99.90;;;;;;5111791;28;19914;-70
2022/12/09 14:32:29;;;;;;;;;;;1.30;99.90;;;;;;5111434;28;20007;-70
2022/12/09 14:34:58;;;;;;;;;;;1.30;99.90;;;;;;5111866;28;19934;-72
2022/12/09 14:37:23;;;;;;;;;;;1.30;99.90;;;;;;5111383;28;20346;-72